createdAt,value
2019-02-20T00:00:05.484Z,3.48
2019-02-20T00:01:05.491Z,3.46
2019-02-20T00:02:05.465Z,3.45
2019-02-20T00:03:05.452Z,3.45
2019-02-20T00:04:05.445Z,3.43
2019-02-20T00:05:05.429Z,3.43
2019-02-20T00:06:05.420Z,3.37
2019-02-20T00:07:05.424Z,3.49
2019-02-20T00:08:05.398Z,3.39
2019-02-20T00:09:05.391Z,3.30
2019-02-20T00:10:05.379Z,3.24
2019-02-20T00:11:05.366Z,3.26
2019-02-20T00:12:05.356Z,3.26
2019-02-20T00:13:05.445Z,3.21
2019-02-20T00:14:05.340Z,3.02
2019-02-20T00:15:05.328Z,3.11
2019-02-20T00:16:05.313Z,3.05
2019-02-20T00:17:05.302Z,3.11
2019-02-20T00:18:05.291Z,3.09
2019-02-20T00:19:05.298Z,2.99
2019-02-20T00:20:05.275Z,3.01
2019-02-20T00:21:05.263Z,2.91
2019-02-20T00:22:05.250Z,3.03
2019-02-20T00:23:05.239Z,3.01
2019-02-20T00:24:05.230Z,2.99
2019-02-20T00:25:05.237Z,2.99
2019-02-20T00:26:05.208Z,3.02
2019-02-20T00:27:05.207Z,2.91
2019-02-20T00:28:05.185Z,3.01
2019-02-20T00:29:05.179Z,2.96
2019-02-20T00:30:05.170Z,3.03
2019-02-20T00:31:05.173Z,3.08
2019-02-20T00:32:05.153Z,3.02
2019-02-20T00:33:05.134Z,2.90
2019-02-20T00:34:05.132Z,2.93
2019-02-20T00:35:05.112Z,2.87
2019-02-20T00:36:05.102Z,2.91
2019-02-20T00:37:05.105Z,2.88
2019-02-20T00:38:05.082Z,2.96
2019-02-20T00:39:05.086Z,2.87
2019-02-20T00:40:05.058Z,2.85
2019-02-20T00:41:05.052Z,2.84
2019-02-20T00:42:05.037Z,2.91
2019-02-20T00:43:05.057Z,2.78
2019-02-20T00:44:05.015Z,2.78
2019-02-20T00:45:05.006Z,2.84
2019-02-20T00:46:04.993Z,2.69
2019-02-20T00:47:04.986Z,2.69
2019-02-20T00:48:04.976Z,2.73
2019-02-20T00:49:04.980Z,2.72
2019-02-20T00:50:04.951Z,2.58
2019-02-20T00:51:04.942Z,2.55
2019-02-20T00:52:04.929Z,2.55
2019-02-20T00:53:04.919Z,2.59
2019-02-20T00:54:04.910Z,2.47
2019-02-20T00:55:04.919Z,2.42
2019-02-20T00:56:04.888Z,2.42
2019-02-20T00:57:04.879Z,2.47
2019-02-20T00:58:04.865Z,2.40
2019-02-20T00:59:04.855Z,2.55
2019-02-20T01:00:04.881Z,2.49
2019-02-20T01:01:04.853Z,2.47
2019-02-20T01:02:04.830Z,2.40
2019-02-20T01:03:04.810Z,2.49
2019-02-20T01:04:04.819Z,2.47
2019-02-20T01:05:04.830Z,2.58
2019-02-20T01:06:05.113Z,2.58
2019-02-20T01:07:04.811Z,2.63
2019-02-20T01:08:04.759Z,2.45
2019-02-20T01:09:04.785Z,2.59
2019-02-20T01:10:04.733Z,2.52
2019-02-20T01:11:04.738Z,2.59
2019-02-20T01:12:04.739Z,2.58
2019-02-20T01:13:04.800Z,2.58
2019-02-20T01:14:04.693Z,2.58
2019-02-20T01:15:04.681Z,2.44
2019-02-20T01:16:04.684Z,2.52
2019-02-20T01:17:04.664Z,2.49
2019-02-20T01:18:04.652Z,2.55
2019-02-20T01:19:04.652Z,2.44
2019-02-20T01:20:04.646Z,2.42
2019-02-20T01:21:04.618Z,2.48
2019-02-20T01:22:04.609Z,2.49
2019-02-20T01:23:04.594Z,2.38
2019-02-20T01:24:04.584Z,2.36
2019-02-20T01:25:04.616Z,2.30
2019-02-20T01:26:04.575Z,2.30
2019-02-20T01:27:04.549Z,2.38
2019-02-20T01:28:04.542Z,2.38
2019-02-20T01:29:04.533Z,2.40
2019-02-20T01:30:04.523Z,2.40
2019-02-20T01:31:04.573Z,2.34
2019-02-20T01:32:04.498Z,2.44
2019-02-20T01:33:04.489Z,2.42
2019-02-20T01:34:04.476Z,2.34
2019-02-20T01:35:04.470Z,2.42
2019-02-20T01:36:04.461Z,2.33
2019-02-20T01:37:04.463Z,2.45
2019-02-20T01:38:04.435Z,2.40
2019-02-20T01:39:04.450Z,2.36
2019-02-20T01:40:04.412Z,2.41
2019-02-20T01:41:04.400Z,2.31
2019-02-20T01:42:04.390Z,2.27
2019-02-20T01:43:04.399Z,2.33
2019-02-20T01:44:04.371Z,2.29
2019-02-20T01:45:04.358Z,2.31
2019-02-20T01:46:04.348Z,2.27
2019-02-20T01:47:04.386Z,2.27
2019-02-20T01:48:04.327Z,2.26
2019-02-20T01:49:04.415Z,2.30
2019-02-20T01:50:04.306Z,2.30
2019-02-20T01:51:04.294Z,2.30
2019-02-20T01:52:04.284Z,2.27
2019-02-20T01:53:10.432Z,2.27
2019-02-20T01:54:05.330Z,2.26
2019-02-20T01:55:04.257Z,2.33
2019-02-20T01:56:04.245Z,2.30
2019-02-20T01:57:04.231Z,2.41
2019-02-20T01:58:04.217Z,2.42
2019-02-20T01:59:04.208Z,2.44
2019-02-20T02:00:04.237Z,2.30
2019-02-20T02:01:04.221Z,2.31
2019-02-20T02:02:04.178Z,2.44
2019-02-20T02:03:04.171Z,2.44
2019-02-20T02:04:04.153Z,2.44
2019-02-20T02:05:04.143Z,2.44
2019-02-20T02:06:04.150Z,2.36
2019-02-20T02:07:04.121Z,2.24
2019-02-20T02:08:04.112Z,2.23
2019-02-20T02:09:04.103Z,2.26
2019-02-20T02:10:04.091Z,2.22
2019-02-20T02:11:04.080Z,2.13
2019-02-20T02:12:04.105Z,2.16
2019-02-20T02:13:04.057Z,2.15
2019-02-20T02:14:04.047Z,2.04
2019-02-20T02:15:04.035Z,2.01
2019-02-20T02:16:04.028Z,1.94
2019-02-20T02:17:04.015Z,1.98
2019-02-20T02:18:04.016Z,1.94
2019-02-20T02:19:03.993Z,1.93
2019-02-20T02:20:03.980Z,1.90
2019-02-20T02:21:03.970Z,1.89
2019-02-20T02:22:03.965Z,1.97
2019-02-20T02:23:03.946Z,1.98
2019-02-20T02:24:03.952Z,1.94
2019-02-20T02:25:03.927Z,2.04
2019-02-20T02:26:10.686Z,2.02
2019-02-20T02:27:04.910Z,2.01
2019-02-20T02:28:03.898Z,2.08
2019-02-20T02:29:03.892Z,2.04
2019-02-20T02:30:03.893Z,2.09
2019-02-20T02:31:03.876Z,2.08
2019-02-20T02:32:03.856Z,2.05
2019-02-20T02:33:03.846Z,2.11
2019-02-20T02:34:03.834Z,2.01
2019-02-20T02:35:03.824Z,2.08
2019-02-20T02:36:03.832Z,2.01
2019-02-20T02:37:03.806Z,1.89
2019-02-20T02:38:03.796Z,1.93
2019-02-20T02:39:03.781Z,1.92
2019-02-20T02:40:03.770Z,1.97
2019-02-20T02:41:03.814Z,1.86
2019-02-20T02:42:03.788Z,1.87
2019-02-20T02:43:03.735Z,1.92
2019-02-20T02:44:03.735Z,1.94
2019-02-20T02:45:03.717Z,1.93
2019-02-20T02:46:03.707Z,1.93
2019-02-20T02:47:03.695Z,1.93
2019-02-20T02:48:03.724Z,1.97
2019-02-20T02:49:03.675Z,1.92
2019-02-20T02:50:03.667Z,1.92
2019-02-20T02:51:03.653Z,1.94
2019-02-20T02:52:03.642Z,1.97
2019-02-20T02:53:03.635Z,1.87
2019-02-20T02:54:03.642Z,2.04
2019-02-20T02:55:03.610Z,1.94
2019-02-20T02:56:03.609Z,2.04
2019-02-20T02:57:03.594Z,2.06
2019-02-20T02:58:03.607Z,2.04
2019-02-20T02:59:03.569Z,1.94
2019-02-20T03:00:03.688Z,1.97
2019-02-20T03:01:03.550Z,1.90
2019-02-20T03:02:03.538Z,1.98
2019-02-20T03:03:03.527Z,1.87
2019-02-20T03:04:03.541Z,1.90
2019-02-20T03:05:03.505Z,1.97
2019-02-20T03:06:03.615Z,1.93
2019-02-20T03:07:03.489Z,1.89
2019-02-20T03:08:03.472Z,1.79
2019-02-20T03:09:03.482Z,1.89
2019-02-20T03:10:03.453Z,1.75
2019-02-20T03:11:03.450Z,1.76
2019-02-20T03:12:03.444Z,1.64
2019-02-20T03:13:03.421Z,1.68
2019-02-20T03:14:03.408Z,1.64
2019-02-20T03:15:03.398Z,1.58
2019-02-20T03:16:03.386Z,1.53
2019-02-20T03:17:03.378Z,1.61
2019-02-20T03:18:03.383Z,1.53
2019-02-20T03:19:03.360Z,1.51
2019-02-20T03:20:03.342Z,1.54
2019-02-20T03:21:03.339Z,1.64
2019-02-20T03:22:03.329Z,1.48
2019-02-20T03:23:03.313Z,1.51
2019-02-20T03:24:03.316Z,1.42
2019-02-20T03:25:03.295Z,1.42
2019-02-20T03:26:03.286Z,1.40
2019-02-20T03:27:03.271Z,1.42
2019-02-20T03:28:03.262Z,1.40
2019-02-20T03:29:03.252Z,1.35
2019-02-20T03:30:03.357Z,1.38
2019-02-20T03:31:03.231Z,1.38
2019-02-20T03:32:03.226Z,1.38
2019-02-20T03:33:03.216Z,1.40
2019-02-20T03:34:03.201Z,1.47
2019-02-20T03:35:03.188Z,1.40
2019-02-20T03:36:03.198Z,1.40
2019-02-20T03:37:03.169Z,1.33
2019-02-20T03:38:03.158Z,1.36
2019-02-20T03:39:03.147Z,1.32
2019-02-20T03:40:03.149Z,1.30
2019-02-20T03:41:03.144Z,1.38
2019-02-20T03:42:03.131Z,1.35
2019-02-20T03:43:03.107Z,1.29
2019-02-20T03:44:03.099Z,1.32
2019-02-20T03:45:03.088Z,1.42
2019-02-20T03:46:03.076Z,1.35
2019-02-20T03:47:03.063Z,1.36
2019-02-20T03:48:03.070Z,1.29
2019-02-20T03:49:03.044Z,1.39
2019-02-20T03:50:03.038Z,1.40
2019-02-20T03:51:03.024Z,1.38
2019-02-20T03:52:03.014Z,1.36
2019-02-20T03:53:03.003Z,1.42
2019-02-20T03:54:03.009Z,1.30
2019-02-20T03:55:02.981Z,1.36
2019-02-20T03:56:02.970Z,1.32
2019-02-20T03:57:02.963Z,1.35
2019-02-20T03:58:02.950Z,1.32
2019-02-20T03:59:02.941Z,1.33
2019-02-20T04:00:03.034Z,1.36
2019-02-20T04:01:02.922Z,1.33
2019-02-20T04:02:02.906Z,1.38
2019-02-20T04:03:02.894Z,1.35
2019-02-20T04:04:02.901Z,1.35
2019-02-20T04:05:02.877Z,1.36
2019-02-20T04:06:02.892Z,1.32
2019-02-20T04:07:02.869Z,1.30
2019-02-20T04:08:02.844Z,1.32
2019-02-20T04:09:02.837Z,1.30
2019-02-20T04:10:02.823Z,1.28
2019-02-20T04:11:02.815Z,1.26
2019-02-20T04:12:02.832Z,1.29
2019-02-20T04:13:02.790Z,1.28
2019-02-20T04:14:02.781Z,1.24
2019-02-20T04:15:02.777Z,1.30
2019-02-20T04:16:02.758Z,1.20
2019-02-20T04:17:02.748Z,1.24
2019-02-20T04:18:02.751Z,1.18
2019-02-20T04:19:02.734Z,1.22
2019-02-20T04:20:02.716Z,1.15
2019-02-20T04:21:02.706Z,1.29
2019-02-20T04:22:02.708Z,1.36
2019-02-20T04:23:02.685Z,1.32
2019-02-20T04:24:03.040Z,1.32
2019-02-20T04:25:02.664Z,1.39
2019-02-20T04:26:02.651Z,1.44
2019-02-20T04:27:02.642Z,1.35
2019-02-20T04:28:02.635Z,1.35
2019-02-20T04:29:02.628Z,1.33
2019-02-20T04:30:02.719Z,1.32
2019-02-20T04:31:02.602Z,1.26
2019-02-20T04:32:02.592Z,1.12
2019-02-20T04:33:02.583Z,1.21
2019-02-20T04:34:02.572Z,1.18
2019-02-20T04:35:02.560Z,1.20
2019-02-20T04:36:02.572Z,1.17
2019-02-20T04:37:02.536Z,1.17
2019-02-20T04:38:02.542Z,1.18
2019-02-20T04:39:02.528Z,1.14
2019-02-20T04:40:02.524Z,1.15
2019-02-20T04:41:02.507Z,1.10
2019-02-20T04:42:02.508Z,1.14
2019-02-20T04:43:02.472Z,1.12
2019-02-20T04:44:02.463Z,1.11
2019-02-20T04:45:02.464Z,1.12
2019-02-20T04:46:02.444Z,1.10
2019-02-20T04:47:02.441Z,1.04
2019-02-20T04:48:02.438Z,1.04
2019-02-20T04:49:02.409Z,1.02
2019-02-20T04:50:02.397Z,1.03
2019-02-20T04:51:02.393Z,1.02
2019-02-20T04:52:02.381Z,1.04
2019-02-20T04:53:02.366Z,0.97
2019-02-20T04:54:02.379Z,0.89
2019-02-20T04:55:02.343Z,1.03
2019-02-20T04:56:02.333Z,1.02
2019-02-20T04:57:02.325Z,1.10
2019-02-20T04:58:02.329Z,1.03
2019-02-20T04:59:02.385Z,1.14
2019-02-20T05:00:02.309Z,1.02
2019-02-20T05:01:02.295Z,1.07
2019-02-20T05:02:02.278Z,0.97
2019-02-20T05:03:02.263Z,1.03
2019-02-20T05:04:02.263Z,1.00
2019-02-20T05:05:02.241Z,1.04
2019-02-20T05:06:02.256Z,1.04
2019-02-20T05:07:02.220Z,0.94
2019-02-20T05:08:02.208Z,0.96
2019-02-20T05:10:09.223Z,0.90
2019-02-20T05:11:02.187Z,0.90
2019-02-20T05:12:02.184Z,0.90
2019-02-20T05:13:02.157Z,0.86
2019-02-20T05:14:02.145Z,0.93
2019-02-20T05:15:02.195Z,0.94
2019-02-20T05:16:02.125Z,0.93
2019-02-20T05:17:02.118Z,0.90
2019-02-20T05:18:02.124Z,0.89
2019-02-20T05:19:02.097Z,0.89
2019-02-20T05:20:02.086Z,0.90
2019-02-20T05:21:02.071Z,0.99
2019-02-20T05:22:02.061Z,0.89
2019-02-20T05:23:02.053Z,0.93
2019-02-20T05:24:02.058Z,0.93
2019-02-20T05:25:02.034Z,0.96
2019-02-20T05:26:02.076Z,0.96
2019-02-20T05:27:02.091Z,0.81
2019-02-20T05:28:02.055Z,0.78
2019-02-20T05:29:01.989Z,0.94
2019-02-20T05:30:01.993Z,0.74
2019-02-20T05:31:01.967Z,0.89
2019-02-20T05:32:02.007Z,0.81
2019-02-20T05:33:01.951Z,0.86
2019-02-20T05:34:01.936Z,0.81
2019-02-20T05:35:01.926Z,0.82
2019-02-20T05:36:02.031Z,0.75
2019-02-20T05:37:01.905Z,0.81
2019-02-20T05:38:01.897Z,0.78
2019-02-20T05:39:01.887Z,0.75
2019-02-20T05:40:01.870Z,0.82
2019-02-20T05:41:01.862Z,0.82
2019-02-20T05:42:01.887Z,0.89
2019-02-20T05:43:01.873Z,0.89
2019-02-20T05:44:01.825Z,0.89
2019-02-20T05:45:01.817Z,0.92
2019-02-20T05:46:01.806Z,0.82
2019-02-20T05:47:01.804Z,0.85
2019-02-20T05:48:01.815Z,0.84
2019-02-20T05:49:01.781Z,0.81
2019-02-20T05:50:01.767Z,0.86
2019-02-20T05:51:01.756Z,0.82
2019-02-20T05:52:01.750Z,0.82
2019-02-20T05:53:01.734Z,0.89
2019-02-20T05:54:01.752Z,0.84
2019-02-20T05:55:01.716Z,0.86
2019-02-20T05:56:01.702Z,0.86
2019-02-20T05:57:01.684Z,0.82
2019-02-20T05:58:01.679Z,0.89
2019-02-20T05:59:01.682Z,0.85
2019-02-20T06:00:01.675Z,0.79
2019-02-20T06:01:01.649Z,0.81
2019-02-20T06:02:01.645Z,0.76
2019-02-20T06:03:01.631Z,0.75
2019-02-20T06:04:01.655Z,0.72
2019-02-20T06:05:01.610Z,0.69
2019-02-20T06:06:01.617Z,0.67
2019-02-20T06:07:01.585Z,0.63
2019-02-20T06:08:01.575Z,0.64
2019-02-20T06:09:01.566Z,0.63
2019-02-20T06:10:01.560Z,0.64
2019-02-20T06:11:01.546Z,0.63
2019-02-20T06:12:01.553Z,0.66
2019-02-20T06:13:01.524Z,0.63
2019-02-20T06:14:01.520Z,0.67
2019-02-20T06:15:01.503Z,0.76
2019-02-20T06:16:01.490Z,0.79
2019-02-20T06:17:01.487Z,0.78
2019-02-20T06:18:01.487Z,0.76
2019-02-20T06:19:01.463Z,0.84
2019-02-20T06:20:01.452Z,0.76
2019-02-20T06:21:01.443Z,0.78
2019-02-20T06:22:01.426Z,0.79
2019-02-20T06:23:01.416Z,0.81
2019-02-20T06:24:01.423Z,0.86
2019-02-20T06:25:01.397Z,0.81
2019-02-20T06:26:01.445Z,0.82
2019-02-20T06:27:01.378Z,0.84
2019-02-20T06:28:01.365Z,1.00
2019-02-20T06:29:01.352Z,0.84
2019-02-20T06:30:01.365Z,0.85
2019-02-20T06:31:01.330Z,0.86
2019-02-20T06:32:01.333Z,0.85
2019-02-20T06:33:01.311Z,0.90
2019-02-20T06:34:01.303Z,0.97
2019-02-20T06:35:01.287Z,0.89
2019-02-20T06:36:01.295Z,0.79
2019-02-20T06:37:01.267Z,0.94
2019-02-20T06:38:01.260Z,0.85
2019-02-20T06:39:01.247Z,0.90
2019-02-20T06:40:01.241Z,0.92
2019-02-20T06:41:01.222Z,0.89
2019-02-20T06:42:01.228Z,0.93
2019-02-20T06:43:01.206Z,0.94
2019-02-20T06:44:01.193Z,0.96
2019-02-20T06:45:01.195Z,0.96
2019-02-20T06:46:01.170Z,0.99
2019-02-20T06:47:01.164Z,0.92
2019-02-20T06:48:01.171Z,1.10
2019-02-20T06:49:01.142Z,1.04
2019-02-20T06:50:01.768Z,1.02
2019-02-20T06:51:01.128Z,1.00
2019-02-20T06:52:01.112Z,1.04
2019-02-20T06:53:01.098Z,1.12
2019-02-20T06:54:01.107Z,1.11
2019-02-20T06:55:01.080Z,1.20
2019-02-20T06:56:01.078Z,1.18
2019-02-20T06:57:01.060Z,1.32
2019-02-20T06:58:01.048Z,1.26
2019-02-20T06:59:01.041Z,1.32
2019-02-20T07:00:01.048Z,1.30
2019-02-20T07:01:01.018Z,1.35
2019-02-20T07:02:01.003Z,1.39
2019-02-20T07:03:01.018Z,1.38
2019-02-20T07:04:00.989Z,1.53
2019-02-20T07:05:00.977Z,1.51
2019-02-20T07:06:00.984Z,1.57
2019-02-20T07:07:00.959Z,1.51
2019-02-20T07:08:00.945Z,1.58
2019-02-20T07:09:00.935Z,1.78
2019-02-20T07:10:00.934Z,2.08
2019-02-20T07:11:00.913Z,2.26
2019-02-20T07:12:00.922Z,2.44
2019-02-20T07:13:00.892Z,2.66
2019-02-20T07:14:00.883Z,2.78
2019-02-20T07:15:00.907Z,2.90
2019-02-20T07:16:00.861Z,2.84
2019-02-20T07:17:00.854Z,2.96
2019-02-20T07:18:00.852Z,3.21
2019-02-20T07:19:00.831Z,3.63
2019-02-20T07:20:00.819Z,3.75
2019-02-20T07:21:00.808Z,4.00
2019-02-20T07:22:00.823Z,4.04
2019-02-20T07:23:00.787Z,4.04
2019-02-20T07:24:00.798Z,3.93
2019-02-20T07:25:03.078Z,4.24
2019-02-20T07:26:00.757Z,4.56
2019-02-20T07:27:00.748Z,4.72
2019-02-20T07:28:00.736Z,4.78
2019-02-20T07:29:00.722Z,4.69
2019-02-20T07:30:00.729Z,4.33
2019-02-20T07:31:00.720Z,4.28
2019-02-20T07:32:00.690Z,4.36
2019-02-20T07:33:00.677Z,4.21
2019-02-20T07:34:00.676Z,4.44
2019-02-20T07:35:00.660Z,4.72
2019-02-20T07:36:00.683Z,4.79
2019-02-20T07:37:00.656Z,4.79
2019-02-20T07:38:00.628Z,4.85
2019-02-20T07:39:00.628Z,4.90
2019-02-20T07:40:00.611Z,4.90
2019-02-20T07:41:00.590Z,5.02
2019-02-20T07:42:00.697Z,5.02
2019-02-20T07:43:00.573Z,5.18
2019-02-20T07:44:00.562Z,4.91
2019-02-20T07:45:00.552Z,4.78
2019-02-20T07:46:00.539Z,5.03
2019-02-20T07:47:00.531Z,5.09
2019-02-20T07:48:00.536Z,5.33
2019-02-20T07:49:00.509Z,5.21
2019-02-20T07:50:00.524Z,4.85
2019-02-20T07:51:00.484Z,4.78
2019-02-20T07:52:00.490Z,4.97
2019-02-20T07:53:00.467Z,4.72
2019-02-20T07:54:00.464Z,4.66
2019-02-20T07:55:00.467Z,4.68
2019-02-20T07:56:00.432Z,4.87
2019-02-20T07:57:00.420Z,5.05
2019-02-20T07:58:00.414Z,5.27
2019-02-20T07:59:00.404Z,5.45
2019-02-20T08:00:00.451Z,5.67
2019-02-20T08:01:00.382Z,5.55
2019-02-20T08:02:00.364Z,5.66
2019-02-20T08:03:00.356Z,5.81
2019-02-20T08:04:00.355Z,6.03
2019-02-20T08:05:00.360Z,6.15
2019-02-20T08:06:00.340Z,6.05
2019-02-20T08:07:00.318Z,6.20
2019-02-20T08:08:00.308Z,6.43
2019-02-20T08:09:00.291Z,6.62
2019-02-20T08:10:00.394Z,6.60
2019-02-20T08:11:00.268Z,6.76
2019-02-20T08:12:00.281Z,6.58
2019-02-20T08:13:00.249Z,6.72
2019-02-20T08:14:00.236Z,6.78
2019-02-20T08:15:00.329Z,6.93
2019-02-20T08:16:00.217Z,7.26
2019-02-20T08:17:00.202Z,7.34
2019-02-20T08:18:00.205Z,7.11
2019-02-20T08:19:00.192Z,6.64
2019-02-20T08:20:00.320Z,6.91
2019-02-20T08:21:00.181Z,7.33
2019-02-20T08:22:00.159Z,7.48
2019-02-20T08:23:00.143Z,7.73
2019-02-20T08:24:00.141Z,7.71
2019-02-20T08:25:00.397Z,8.04
2019-02-20T08:26:00.105Z,7.98
2019-02-20T08:27:00.099Z,8.24
2019-02-20T08:28:00.083Z,8.24
2019-02-20T08:29:00.077Z,8.16
2019-02-20T08:30:00.269Z,8.28
2019-02-20T08:31:00.047Z,8.22
2019-02-20T08:32:00.044Z,8.16
2019-02-20T08:33:00.032Z,7.41
2019-02-20T08:34:00.019Z,7.45
2019-02-20T08:35:00.006Z,8.10
2019-02-20T08:36:00.017Z,8.46
2019-02-20T08:36:59.985Z,8.40
2019-02-20T08:37:59.977Z,8.09
2019-02-20T08:38:59.961Z,7.93
2019-02-20T08:39:59.953Z,8.25
2019-02-20T08:40:59.942Z,8.04
2019-02-20T08:41:59.951Z,8.32
2019-02-20T08:42:59.917Z,8.68
2019-02-20T08:43:59.908Z,8.68
2019-02-20T08:44:59.899Z,8.13
2019-02-20T08:45:59.886Z,7.75
2019-02-20T08:46:59.876Z,7.45
2019-02-20T08:47:59.883Z,7.11
2019-02-20T08:48:59.856Z,7.04
2019-02-20T08:49:59.851Z,7.13
2019-02-20T08:50:59.835Z,7.01
2019-02-20T08:51:59.825Z,7.08
2019-02-20T08:52:59.810Z,7.03
2019-02-20T08:53:59.815Z,7.18
2019-02-20T08:54:59.796Z,6.86
2019-02-20T08:55:59.794Z,6.70
2019-02-20T08:56:59.768Z,6.76
2019-02-20T08:57:59.754Z,7.09
2019-02-20T08:58:59.747Z,7.47
2019-02-20T08:59:59.750Z,7.44
2019-02-20T09:00:59.719Z,7.45
2019-02-20T09:01:59.730Z,7.48
2019-02-20T09:02:59.697Z,7.31
2019-02-20T09:03:59.691Z,7.12
2019-02-20T09:04:59.678Z,7.44
2019-02-20T09:05:59.681Z,7.58
2019-02-20T09:06:59.691Z,7.68
2019-02-20T09:07:59.649Z,7.95
2019-02-20T09:08:59.634Z,8.11
2019-02-20T09:09:59.631Z,8.53
2019-02-20T09:10:59.611Z,8.29
2019-02-20T09:11:59.627Z,8.39
2019-02-20T09:12:59.593Z,8.13
2019-02-20T09:13:59.603Z,8.03
2019-02-20T09:14:59.573Z,8.35
2019-02-20T09:15:59.582Z,8.29
2019-02-20T09:16:59.547Z,8.72
2019-02-20T09:17:59.576Z,8.82
2019-02-20T09:18:59.525Z,9.29
2019-02-20T09:19:59.520Z,9.50
2019-02-20T09:20:59.512Z,9.85
2019-02-20T09:21:59.499Z,9.72
2019-02-20T09:22:59.487Z,9.72
2019-02-20T09:23:59.486Z,9.82
2019-02-20T09:24:59.457Z,9.48
2019-02-20T09:25:59.448Z,9.29
2019-02-20T09:26:59.432Z,9.26
2019-02-20T09:27:59.444Z,9.35
2019-02-20T09:28:59.419Z,9.08
2019-02-20T09:29:59.515Z,9.62
2019-02-20T09:30:59.403Z,9.55
2019-02-20T09:31:59.377Z,9.47
2019-02-20T09:32:59.373Z,9.20
2019-02-20T09:33:59.355Z,9.45
2019-02-20T09:34:59.369Z,9.52
2019-02-20T09:35:59.399Z,9.37
2019-02-20T09:36:59.326Z,9.19
2019-02-20T09:37:59.313Z,9.55
2019-02-20T09:38:59.322Z,9.64
2019-02-20T09:39:59.311Z,9.96
2019-02-20T09:40:59.314Z,9.88
2019-02-20T09:41:59.287Z,9.98
2019-02-20T09:42:59.265Z,10.18
2019-02-20T09:43:59.253Z,10.52
2019-02-20T09:44:59.240Z,10.36
2019-02-20T09:45:59.234Z,10.26
2019-02-20T09:46:59.218Z,10.44
2019-02-20T09:47:59.224Z,10.15
2019-02-20T09:48:59.198Z,10.33
2019-02-20T09:49:59.186Z,10.32
2019-02-20T09:50:59.184Z,9.80
2019-02-20T09:51:59.179Z,9.82
2019-02-20T09:52:59.154Z,9.81
2019-02-20T09:53:59.211Z,10.17
2019-02-20T09:54:59.128Z,10.46
2019-02-20T09:55:59.122Z,10.47
2019-02-20T09:56:59.123Z,10.20
2019-02-20T09:57:59.121Z,10.38
2019-02-20T09:58:59.084Z,10.25
2019-02-20T09:59:59.094Z,10.35
2019-02-20T10:00:59.068Z,10.36
2019-02-20T10:01:59.053Z,10.35
2019-02-20T10:02:59.043Z,10.42
2019-02-20T10:03:59.591Z,10.61
2019-02-20T10:04:59.040Z,10.85
2019-02-20T10:05:59.032Z,11.03
2019-02-20T10:06:59.001Z,10.92
2019-02-20T10:07:58.995Z,11.09
2019-02-20T10:08:58.979Z,11.09
2019-02-20T10:09:58.966Z,10.85
2019-02-20T10:10:58.959Z,10.69
2019-02-20T10:11:59.049Z,10.83
2019-02-20T10:12:58.937Z,10.90
2019-02-20T10:13:58.942Z,10.73
2019-02-20T10:14:58.919Z,11.09
2019-02-20T10:15:58.903Z,11.45
2019-02-20T10:16:58.894Z,11.60
2019-02-20T10:17:58.993Z,11.43
2019-02-20T10:18:58.867Z,11.52
2019-02-20T10:19:58.854Z,11.31
2019-02-20T10:20:58.848Z,11.73
2019-02-20T10:21:58.835Z,11.73
2019-02-20T10:22:58.822Z,12.13
2019-02-20T10:23:58.831Z,12.15
2019-02-20T10:24:58.812Z,11.75
2019-02-20T10:26:01.130Z,11.76
2019-02-20T10:27:00.854Z,12.18
2019-02-20T10:27:58.770Z,12.08
2019-02-20T10:28:58.755Z,11.94
2019-02-20T10:29:58.765Z,11.78
2019-02-20T10:30:58.739Z,11.88
2019-02-20T10:31:58.728Z,12.19
2019-02-20T10:32:58.714Z,12.47
2019-02-20T10:33:58.708Z,12.37
2019-02-20T10:34:58.693Z,12.44
2019-02-20T10:35:58.690Z,12.51
2019-02-20T10:36:58.670Z,12.34
2019-02-20T10:37:58.666Z,12.36
2019-02-20T10:38:58.662Z,12.34
2019-02-20T10:39:58.636Z,12.38
2019-02-20T10:40:58.630Z,12.53
2019-02-20T10:41:58.633Z,12.91
2019-02-20T10:42:58.607Z,13.55
2019-02-20T10:43:58.591Z,13.45
2019-02-20T10:44:58.582Z,13.44
2019-02-20T10:45:58.571Z,13.69
2019-02-20T10:46:58.560Z,14.09
2019-02-20T10:47:58.565Z,14.26
2019-02-20T10:48:58.539Z,14.83
2019-02-20T10:49:58.530Z,14.13
2019-02-20T10:50:58.517Z,13.94
2019-02-20T10:51:58.512Z,14.69
2019-02-20T10:52:58.495Z,14.49
2019-02-20T10:53:58.501Z,14.30
2019-02-20T10:54:58.470Z,14.16
2019-02-20T10:55:58.461Z,14.39
2019-02-20T10:56:58.452Z,14.31
2019-02-20T10:57:58.446Z,14.31
2019-02-20T10:58:58.429Z,14.59
2019-02-20T10:59:58.520Z,14.36
2019-02-20T11:00:58.410Z,14.30
2019-02-20T11:01:58.400Z,13.86
2019-02-20T11:02:58.388Z,14.26
2019-02-20T11:03:58.381Z,14.06
2019-02-20T11:04:58.362Z,13.88
2019-02-20T11:05:58.368Z,13.70
2019-02-20T11:06:58.339Z,13.94
2019-02-20T11:07:58.329Z,13.81
2019-02-20T11:08:58.318Z,13.57
2019-02-20T11:10:05.340Z,13.87
2019-02-20T11:10:58.297Z,13.93
2019-02-20T11:11:58.320Z,14.06
2019-02-20T11:12:58.274Z,13.88
2019-02-20T11:13:58.264Z,13.78
2019-02-20T11:14:58.255Z,14.06
2019-02-20T11:15:58.939Z,14.08
2019-02-20T11:16:58.227Z,14.51
2019-02-20T11:17:58.236Z,14.51
2019-02-20T11:18:58.208Z,14.42
2019-02-20T11:19:58.197Z,14.69
2019-02-20T11:20:58.185Z,14.67
2019-02-20T11:21:58.176Z,14.15
2019-02-20T11:22:58.166Z,13.73
2019-02-20T11:23:58.175Z,13.51
2019-02-20T11:24:58.146Z,13.97
2019-02-20T11:25:58.135Z,14.52
2019-02-20T11:26:58.122Z,14.90
2019-02-20T11:27:58.132Z,15.41
2019-02-20T11:28:58.110Z,14.98
2019-02-20T11:29:58.194Z,14.28
2019-02-20T11:30:58.088Z,14.83
2019-02-20T11:31:58.066Z,14.34
2019-02-20T11:32:58.053Z,14.27
2019-02-20T11:33:58.046Z,14.46
2019-02-20T11:34:58.045Z,14.63
2019-02-20T11:35:58.041Z,14.57
2019-02-20T11:36:58.011Z,14.51
2019-02-20T11:37:57.998Z,15.07
2019-02-20T11:38:57.992Z,15.12
2019-02-20T11:39:57.983Z,14.66
2019-02-20T11:40:57.966Z,14.79
2019-02-20T11:41:57.972Z,14.56
2019-02-20T11:42:57.944Z,15.10
2019-02-20T11:43:57.934Z,15.63
2019-02-20T11:44:57.921Z,15.34
2019-02-20T11:45:57.916Z,14.70
2019-02-20T11:46:57.900Z,14.59
2019-02-20T11:47:57.922Z,14.60
2019-02-20T11:48:57.901Z,14.56
2019-02-20T11:49:57.867Z,14.69
2019-02-20T11:50:57.857Z,14.74
2019-02-20T11:51:57.841Z,14.57
2019-02-20T11:52:57.836Z,14.86
2019-02-20T11:53:57.840Z,14.95
2019-02-20T11:54:57.816Z,15.35
2019-02-20T11:55:57.806Z,15.81
2019-02-20T11:56:57.787Z,16.16
2019-02-20T11:58:00.777Z,16.22
2019-02-20T11:58:57.768Z,16.30
2019-02-20T11:59:57.863Z,16.26
2019-02-20T12:00:57.759Z,16.48
2019-02-20T12:01:57.737Z,16.62
2019-02-20T12:02:57.722Z,15.83
2019-02-20T12:03:57.713Z,15.88
2019-02-20T12:04:57.708Z,16.42
2019-02-20T12:05:57.706Z,16.07
2019-02-20T12:06:57.680Z,15.43
2019-02-20T12:07:57.671Z,15.19
2019-02-20T12:08:57.662Z,15.40
2019-02-20T12:09:57.648Z,15.71
2019-02-20T12:10:57.633Z,15.75
2019-02-20T12:11:57.642Z,15.81
2019-02-20T12:12:57.616Z,15.99
2019-02-20T12:13:57.604Z,16.25
2019-02-20T12:14:57.591Z,16.88
2019-02-20T12:15:57.585Z,17.03
2019-02-20T12:16:57.572Z,17.35
2019-02-20T12:17:57.575Z,17.54
2019-02-20T12:18:57.571Z,18.13
2019-02-20T12:19:57.543Z,17.92
2019-02-20T12:20:57.534Z,17.18
2019-02-20T12:21:57.517Z,16.58
2019-02-20T12:22:57.527Z,16.49
2019-02-20T12:23:57.540Z,16.55
2019-02-20T12:24:59.261Z,16.45
2019-02-20T12:25:57.477Z,16.25
2019-02-20T12:26:57.461Z,15.44
2019-02-20T12:27:57.452Z,15.55
2019-02-20T12:28:57.440Z,15.77
2019-02-20T12:29:57.448Z,15.93
2019-02-20T12:30:57.416Z,15.81
2019-02-20T12:31:57.425Z,15.92
2019-02-20T12:32:57.397Z,15.67
2019-02-20T12:33:57.390Z,15.59
2019-02-20T12:34:57.377Z,15.92
2019-02-20T12:35:57.384Z,15.98
2019-02-20T12:36:57.349Z,15.92
2019-02-20T12:37:57.342Z,15.73
2019-02-20T12:38:57.333Z,15.81
2019-02-20T12:39:57.326Z,15.74
2019-02-20T12:40:57.308Z,16.00
2019-02-20T12:41:57.314Z,16.22
2019-02-20T12:42:57.289Z,16.27
2019-02-20T12:43:57.293Z,16.26
2019-02-20T12:44:58.544Z,16.36
2019-02-20T12:45:57.256Z,16.59
2019-02-20T12:46:57.245Z,16.49
2019-02-20T12:47:57.248Z,16.27
2019-02-20T12:48:57.229Z,16.47
2019-02-20T12:49:57.219Z,16.91
2019-02-20T12:50:57.200Z,17.21
2019-02-20T12:51:57.190Z,17.47
2019-02-20T12:52:57.180Z,17.58
2019-02-20T12:53:57.184Z,17.87
2019-02-20T12:54:57.155Z,17.36
2019-02-20T12:55:57.148Z,16.72
2019-02-20T12:56:57.138Z,16.99
2019-02-20T12:57:57.123Z,17.00
2019-02-20T12:58:57.119Z,16.58
2019-02-20T12:59:57.126Z,16.55
2019-02-20T13:00:57.113Z,16.14
2019-02-20T13:01:57.082Z,15.84
2019-02-20T13:02:57.069Z,15.75
2019-02-20T13:03:57.058Z,15.93
2019-02-20T13:04:57.046Z,15.81
2019-02-20T13:05:57.052Z,16.07
2019-02-20T13:07:58.014Z,16.18
2019-02-20T13:08:57.007Z,16.34
2019-02-20T13:09:56.992Z,16.22
2019-02-20T13:10:56.986Z,15.99
2019-02-20T13:11:57.005Z,16.17
2019-02-20T13:12:56.966Z,16.21